sensor_id;sensor_type;location;lat;lon;timestamp;P1;durP1;ratioP1;P2;durP2;ratioP2
69989;SDS011;57331;52.054;5.294;2022-08-25T00:01:55;9.00;;;5.13;;
69989;SDS011;57331;52.054;5.294;2022-08-25T00:04:25;11.75;;;5.10;;
69989;SDS011;57331;52.054;5.294;2022-08-25T00:06:55;8.40;;;5.55;;
69989;SDS011;57331;52.054;5.294;2022-08-25T00:09:28;7.85;;;5.25;;
69989;SDS011;57331;52.054;5.294;2022-08-25T00:11:56;12.53;;;5.73;;
69989;SDS011;57331;52.054;5.294;2022-08-25T00:14:28;10.18;;;4.88;;
69989;SDS011;57331;52.054;5.294;2022-08-25T00:16:57;10.63;;;5.28;;
69989;SDS011;57331;52.054;5.294;2022-08-25T00:19:26;9.27;;;5.50;;
69989;SDS011;57331;52.054;5.294;2022-08-25T00:21:55;9.45;;;5.72;;
69989;SDS011;57331;52.054;5.294;2022-08-25T00:24:22;9.00;;;5.80;;
69989;SDS011;57331;52.054;5.294;2022-08-25T00:26:51;13.80;;;5.75;;
69989;SDS011;57331;52.054;5.294;2022-08-25T00:29:20;12.70;;;5.60;;
69989;SDS011;57331;52.054;5.294;2022-08-25T00:31:48;9.82;;;5.63;;
69989;SDS011;57331;52.054;5.294;2022-08-25T00:34:18;9.48;;;5.68;;
69989;SDS011;57331;52.054;5.294;2022-08-25T00:36:48;8.23;;;5.60;;
69989;SDS011;57331;52.054;5.294;2022-08-25T00:39:17;11.25;;;6.30;;
69989;SDS011;57331;52.054;5.294;2022-08-25T00:41:47;8.73;;;5.75;;
69989;SDS011;57331;52.054;5.294;2022-08-25T00:44:15;10.55;;;6.20;;
69989;SDS011;57331;52.054;5.294;2022-08-25T00:46:49;9.55;;;5.80;;
69989;SDS011;57331;52.054;5.294;2022-08-25T00:49:19;10.63;;;6.00;;
69989;SDS011;57331;52.054;5.294;2022-08-25T00:51:59;9.13;;;6.18;;
69989;SDS011;57331;52.054;5.294;2022-08-25T00:54:28;8.80;;;6.10;;
69989;SDS011;57331;52.054;5.294;2022-08-25T00:57:03;11.02;;;6.10;;
69989;SDS011;57331;52.054;5.294;2022-08-25T00:59:31;10.48;;;6.10;;
69989;SDS011;57331;52.054;5.294;2022-08-25T01:01:59;10.57;;;6.30;;
69989;SDS011;57331;52.054;5.294;2022-08-25T01:04:26;10.32;;;6.78;;
69989;SDS011;57331;52.054;5.294;2022-08-25T01:06:53;10.07;;;6.38;;
69989;SDS011;57331;52.054;5.294;2022-08-25T01:09:23;9.75;;;6.25;;
69989;SDS011;57331;52.054;5.294;2022-08-25T01:11:50;13.38;;;6.93;;
69989;SDS011;57331;52.054;5.294;2022-08-25T01:14:18;9.60;;;6.70;;
69989;SDS011;57331;52.054;5.294;2022-08-25T01:16:46;11.30;;;6.90;;
69989;SDS011;57331;52.054;5.294;2022-08-25T01:19:18;12.07;;;6.85;;
69989;SDS011;57331;52.054;5.294;2022-08-25T01:21:50;10.40;;;7.07;;
69989;SDS011;57331;52.054;5.294;2022-08-25T01:26:54;11.30;;;6.17;;
69989;SDS011;57331;52.054;5.294;2022-08-25T01:29:20;11.35;;;7.15;;
69989;SDS011;57331;52.054;5.294;2022-08-25T01:31:52;12.93;;;6.63;;
69989;SDS011;57331;52.054;5.294;2022-08-25T01:34:24;11.55;;;7.20;;
69989;SDS011;57331;52.054;5.294;2022-08-25T01:36:53;9.82;;;6.50;;
69989;SDS011;57331;52.054;5.294;2022-08-25T01:39:20;12.80;;;7.70;;
69989;SDS011;57331;52.054;5.294;2022-08-25T01:44:31;10.48;;;6.95;;
69989;SDS011;57331;52.054;5.294;2022-08-25T01:47:01;10.30;;;6.32;;
69989;SDS011;57331;52.054;5.294;2022-08-25T01:49:29;10.82;;;6.90;;
69989;SDS011;57331;52.054;5.294;2022-08-25T01:52:00;12.13;;;7.30;;
69989;SDS011;57331;52.054;5.294;2022-08-25T01:54:32;10.68;;;7.38;;
69989;SDS011;57331;52.054;5.294;2022-08-25T01:56:59;12.13;;;7.97;;
69989;SDS011;57331;52.054;5.294;2022-08-25T01:59:26;14.90;;;7.47;;
69989;SDS011;57331;52.054;5.294;2022-08-25T02:01:53;11.23;;;7.70;;
69989;SDS011;57331;52.054;5.294;2022-08-25T02:04:26;12.03;;;7.70;;
69989;SDS011;57331;52.054;5.294;2022-08-25T02:07:01;13.32;;;7.60;;
69989;SDS011;57331;52.054;5.294;2022-08-25T02:09:29;12.95;;;7.30;;
69989;SDS011;57331;52.054;5.294;2022-08-25T02:11:57;12.23;;;7.45;;
69989;SDS011;57331;52.054;5.294;2022-08-25T02:14:24;14.00;;;7.60;;
69989;SDS011;57331;52.054;5.294;2022-08-25T02:16:52;13.67;;;7.47;;
69989;SDS011;57331;52.054;5.294;2022-08-25T02:19:21;12.32;;;7.53;;
69989;SDS011;57331;52.054;5.294;2022-08-25T02:21:49;12.68;;;7.72;;
69989;SDS011;57331;52.054;5.294;2022-08-25T02:24:16;11.98;;;7.63;;
69989;SDS011;57331;52.054;5.294;2022-08-25T02:26:44;10.98;;;7.28;;
69989;SDS011;57331;52.054;5.294;2022-08-25T02:29:10;13.97;;;7.80;;
69989;SDS011;57331;52.054;5.294;2022-08-25T02:31:38;14.45;;;7.28;;
69989;SDS011;57331;52.054;5.294;2022-08-25T02:34:05;15.40;;;8.20;;
69989;SDS011;57331;52.054;5.294;2022-08-25T02:36:34;11.10;;;7.47;;
69989;SDS011;57331;52.054;5.294;2022-08-25T02:39:03;14.30;;;7.88;;
69989;SDS011;57331;52.054;5.294;2022-08-25T02:41:32;11.53;;;7.60;;
69989;SDS011;57331;52.054;5.294;2022-08-25T02:44:00;12.65;;;7.75;;
69989;SDS011;57331;52.054;5.294;2022-08-25T02:46:28;11.40;;;7.38;;
69989;SDS011;57331;52.054;5.294;2022-08-25T02:48:56;14.95;;;7.80;;
69989;SDS011;57331;52.054;5.294;2022-08-25T02:51:24;12.02;;;7.88;;
69989;SDS011;57331;52.054;5.294;2022-08-25T02:53:55;12.63;;;7.83;;
69989;SDS011;57331;52.054;5.294;2022-08-25T02:56:27;10.05;;;7.03;;
69989;SDS011;57331;52.054;5.294;2022-08-25T02:58:55;10.70;;;7.75;;
69989;SDS011;57331;52.054;5.294;2022-08-25T03:01:22;15.35;;;7.72;;
69989;SDS011;57331;52.054;5.294;2022-08-25T03:03:54;12.68;;;7.10;;
69989;SDS011;57331;52.054;5.294;2022-08-25T03:06:22;9.93;;;6.63;;
69989;SDS011;57331;52.054;5.294;2022-08-25T03:08:50;10.45;;;6.90;;
69989;SDS011;57331;52.054;5.294;2022-08-25T03:11:18;12.32;;;6.95;;
69989;SDS011;57331;52.054;5.294;2022-08-25T03:13:45;10.73;;;6.60;;
69989;SDS011;57331;52.054;5.294;2022-08-25T03:16:12;11.73;;;5.65;;
69989;SDS011;57331;52.054;5.294;2022-08-25T03:18:39;11.63;;;5.60;;
69989;SDS011;57331;52.054;5.294;2022-08-25T03:21:08;11.88;;;5.38;;
69989;SDS011;57331;52.054;5.294;2022-08-25T03:23:36;10.95;;;4.63;;
69989;SDS011;57331;52.054;5.294;2022-08-25T03:26:03;11.68;;;4.40;;
69989;SDS011;57331;52.054;5.294;2022-08-25T03:28:49;8.90;;;4.47;;
69989;SDS011;57331;52.054;5.294;2022-08-25T03:31:16;8.17;;;4.80;;
69989;SDS011;57331;52.054;5.294;2022-08-25T03:33:44;10.15;;;4.85;;
69989;SDS011;57331;52.054;5.294;2022-08-25T03:36:11;8.15;;;4.18;;
69989;SDS011;57331;52.054;5.294;2022-08-25T03:38:40;9.55;;;4.50;;
69989;SDS011;57331;52.054;5.294;2022-08-25T03:41:26;8.80;;;4.38;;
69989;SDS011;57331;52.054;5.294;2022-08-25T03:43:55;8.00;;;4.77;;
69989;SDS011;57331;52.054;5.294;2022-08-25T03:46:23;10.80;;;4.75;;
69989;SDS011;57331;52.054;5.294;2022-08-25T03:48:55;8.43;;;4.32;;
69989;SDS011;57331;52.054;5.294;2022-08-25T03:51:26;9.00;;;4.88;;
69989;SDS011;57331;52.054;5.294;2022-08-25T03:53:58;12.90;;;4.43;;
69989;SDS011;57331;52.054;5.294;2022-08-25T03:56:26;7.60;;;4.53;;
69989;SDS011;57331;52.054;5.294;2022-08-25T03:58:53;12.02;;;4.50;;
69989;SDS011;57331;52.054;5.294;2022-08-25T04:01:21;9.32;;;4.60;;
69989;SDS011;57331;52.054;5.294;2022-08-25T04:03:48;9.10;;;4.55;;
69989;SDS011;57331;52.054;5.294;2022-08-25T04:06:16;9.68;;;4.40;;
69989;SDS011;57331;52.054;5.294;2022-08-25T04:08:44;7.50;;;4.27;;
69989;SDS011;57331;52.054;5.294;2022-08-25T04:11:13;7.47;;;4.63;;
69989;SDS011;57331;52.054;5.294;2022-08-25T04:13:42;8.57;;;4.47;;
69989;SDS011;57331;52.054;5.294;2022-08-25T04:16:12;9.70;;;4.78;;
69989;SDS011;57331;52.054;5.294;2022-08-25T04:18:44;8.85;;;4.55;;
69989;SDS011;57331;52.054;5.294;2022-08-25T04:21:12;7.40;;;4.23;;
69989;SDS011;57331;52.054;5.294;2022-08-25T04:23:40;9.48;;;4.80;;
69989;SDS011;57331;52.054;5.294;2022-08-25T04:26:09;9.73;;;4.57;;
69989;SDS011;57331;52.054;5.294;2022-08-25T04:28:37;8.82;;;4.60;;
69989;SDS011;57331;52.054;5.294;2022-08-25T04:31:05;9.90;;;4.65;;
69989;SDS011;57331;52.054;5.294;2022-08-25T04:33:34;9.73;;;5.20;;
69989;SDS011;57331;52.054;5.294;2022-08-25T04:36:01;12.73;;;5.05;;
69989;SDS011;57331;52.054;5.294;2022-08-25T04:38:34;13.68;;;7.88;;
69989;SDS011;57331;52.054;5.294;2022-08-25T04:41:02;12.25;;;6.95;;
69989;SDS011;57331;52.054;5.294;2022-08-25T04:43:30;9.50;;;5.05;;
69989;SDS011;57331;52.054;5.294;2022-08-25T04:45:58;8.57;;;4.87;;
69989;SDS011;57331;52.054;5.294;2022-08-25T04:48:30;10.30;;;5.25;;
69989;SDS011;57331;52.054;5.294;2022-08-25T04:50:57;8.07;;;4.22;;
69989;SDS011;57331;52.054;5.294;2022-08-25T04:53:29;13.00;;;4.72;;
69989;SDS011;57331;52.054;5.294;2022-08-25T04:55:55;9.07;;;4.43;;
69989;SDS011;57331;52.054;5.294;2022-08-25T04:58:28;8.67;;;4.33;;
69989;SDS011;57331;52.054;5.294;2022-08-25T05:01:03;11.32;;;4.50;;
69989;SDS011;57331;52.054;5.294;2022-08-25T05:03:35;8.35;;;4.35;;
69989;SDS011;57331;52.054;5.294;2022-08-25T05:06:03;8.65;;;4.43;;
69989;SDS011;57331;52.054;5.294;2022-08-25T05:08:33;10.73;;;4.30;;
69989;SDS011;57331;52.054;5.294;2022-08-25T05:11:07;6.67;;;3.70;;
69989;SDS011;57331;52.054;5.294;2022-08-25T05:13:38;9.75;;;4.05;;
69989;SDS011;57331;52.054;5.294;2022-08-25T05:16:06;8.40;;;4.50;;
69989;SDS011;57331;52.054;5.294;2022-08-25T05:18:36;7.07;;;3.70;;
69989;SDS011;57331;52.054;5.294;2022-08-25T05:21:04;8.55;;;4.15;;
69989;SDS011;57331;52.054;5.294;2022-08-25T05:23:41;11.17;;;5.00;;
69989;SDS011;57331;52.054;5.294;2022-08-25T05:26:10;10.30;;;4.28;;
69989;SDS011;57331;52.054;5.294;2022-08-25T05:28:45;10.70;;;4.25;;
69989;SDS011;57331;52.054;5.294;2022-08-25T05:31:17;8.50;;;4.10;;
69989;SDS011;57331;52.054;5.294;2022-08-25T05:33:45;10.93;;;4.18;;
69989;SDS011;57331;52.054;5.294;2022-08-25T05:36:13;9.07;;;3.50;;
69989;SDS011;57331;52.054;5.294;2022-08-25T05:38:41;11.18;;;3.97;;
69989;SDS011;57331;52.054;5.294;2022-08-25T05:41:10;10.52;;;4.03;;
69989;SDS011;57331;52.054;5.294;2022-08-25T05:43:42;8.55;;;3.80;;
69989;SDS011;57331;52.054;5.294;2022-08-25T05:46:12;15.27;;;8.95;;
69989;SDS011;57331;52.054;5.294;2022-08-25T05:48:40;8.80;;;4.13;;
69989;SDS011;57331;52.054;5.294;2022-08-25T05:51:08;10.18;;;3.63;;
69989;SDS011;57331;52.054;5.294;2022-08-25T05:53:36;7.25;;;3.33;;
69989;SDS011;57331;52.054;5.294;2022-08-25T05:56:04;9.52;;;3.80;;
69989;SDS011;57331;52.054;5.294;2022-08-25T05:58:31;8.25;;;3.97;;
69989;SDS011;57331;52.054;5.294;2022-08-25T06:00:59;7.77;;;3.87;;
69989;SDS011;57331;52.054;5.294;2022-08-25T06:03:46;7.75;;;3.83;;
69989;SDS011;57331;52.054;5.294;2022-08-25T06:06:14;8.07;;;3.58;;
69989;SDS011;57331;52.054;5.294;2022-08-25T06:08:42;9.52;;;4.10;;
69989;SDS011;57331;52.054;5.294;2022-08-25T06:11:12;7.88;;;3.58;;
69989;SDS011;57331;52.054;5.294;2022-08-25T06:13:41;8.53;;;3.90;;
69989;SDS011;57331;52.054;5.294;2022-08-25T06:16:08;8.40;;;3.60;;
69989;SDS011;57331;52.054;5.294;2022-08-25T06:18:35;7.40;;;4.00;;
69989;SDS011;57331;52.054;5.294;2022-08-25T06:21:08;8.38;;;3.90;;
69989;SDS011;57331;52.054;5.294;2022-08-25T06:23:39;8.82;;;3.92;;
69989;SDS011;57331;52.054;5.294;2022-08-25T06:26:08;8.93;;;4.50;;
69989;SDS011;57331;52.054;5.294;2022-08-25T06:28:46;10.90;;;4.15;;
69989;SDS011;57331;52.054;5.294;2022-08-25T06:31:14;10.75;;;3.70;;
69989;SDS011;57331;52.054;5.294;2022-08-25T06:33:41;6.45;;;3.47;;
69989;SDS011;57331;52.054;5.294;2022-08-25T06:36:09;6.93;;;3.17;;
69989;SDS011;57331;52.054;5.294;2022-08-25T06:38:36;8.97;;;3.70;;
69989;SDS011;57331;52.054;5.294;2022-08-25T06:41:04;10.45;;;4.28;;
69989;SDS011;57331;52.054;5.294;2022-08-25T06:43:33;8.07;;;3.70;;
69989;SDS011;57331;52.054;5.294;2022-08-25T06:46:06;8.05;;;3.58;;
69989;SDS011;57331;52.054;5.294;2022-08-25T06:48:37;7.82;;;4.13;;
69989;SDS011;57331;52.054;5.294;2022-08-25T06:51:05;9.40;;;3.83;;
69989;SDS011;57331;52.054;5.294;2022-08-25T06:53:35;10.38;;;4.07;;
69989;SDS011;57331;52.054;5.294;2022-08-25T06:56:03;11.45;;;3.70;;
69989;SDS011;57331;52.054;5.294;2022-08-25T06:58:32;7.68;;;3.80;;
69989;SDS011;57331;52.054;5.294;2022-08-25T07:01:12;7.85;;;3.95;;
69989;SDS011;57331;52.054;5.294;2022-08-25T07:03:52;11.63;;;4.40;;
69989;SDS011;57331;52.054;5.294;2022-08-25T07:06:23;10.98;;;4.25;;
69989;SDS011;57331;52.054;5.294;2022-08-25T07:08:50;8.90;;;3.88;;
69989;SDS011;57331;52.054;5.294;2022-08-25T07:11:17;9.40;;;3.92;;
69989;SDS011;57331;52.054;5.294;2022-08-25T07:13:46;8.02;;;3.60;;
69989;SDS011;57331;52.054;5.294;2022-08-25T07:16:14;14.73;;;4.20;;
69989;SDS011;57331;52.054;5.294;2022-08-25T07:18:42;10.75;;;3.47;;
69989;SDS011;57331;52.054;5.294;2022-08-25T07:21:11;9.15;;;4.07;;
69989;SDS011;57331;52.054;5.294;2022-08-25T07:23:41;10.65;;;3.60;;
69989;SDS011;57331;52.054;5.294;2022-08-25T07:29:04;11.47;;;4.63;;
69989;SDS011;57331;52.054;5.294;2022-08-25T07:31:36;7.43;;;3.78;;
69989;SDS011;57331;52.054;5.294;2022-08-25T07:34:04;20.92;;;8.05;;
69989;SDS011;57331;52.054;5.294;2022-08-25T07:36:51;12.23;;;4.28;;
69989;SDS011;57331;52.054;5.294;2022-08-25T07:39:18;9.85;;;3.97;;
69989;SDS011;57331;52.054;5.294;2022-08-25T07:41:48;8.30;;;3.97;;
69989;SDS011;57331;52.054;5.294;2022-08-25T07:44:18;10.05;;;3.95;;
69989;SDS011;57331;52.054;5.294;2022-08-25T07:46:46;8.18;;;3.45;;
69989;SDS011;57331;52.054;5.294;2022-08-25T07:49:15;9.63;;;4.00;;
69989;SDS011;57331;52.054;5.294;2022-08-25T07:51:48;12.23;;;3.97;;
69989;SDS011;57331;52.054;5.294;2022-08-25T07:54:31;6.13;;;3.60;;
69989;SDS011;57331;52.054;5.294;2022-08-25T07:57:03;10.65;;;3.70;;
69989;SDS011;57331;52.054;5.294;2022-08-25T07:59:31;11.73;;;3.97;;
69989;SDS011;57331;52.054;5.294;2022-08-25T08:02:08;8.50;;;3.20;;
69989;SDS011;57331;52.054;5.294;2022-08-25T08:04:45;9.00;;;3.60;;
69989;SDS011;57331;52.054;5.294;2022-08-25T08:07:17;7.80;;;3.40;;
69989;SDS011;57331;52.054;5.294;2022-08-25T08:10:02;11.30;;;3.90;;
69989;SDS011;57331;52.054;5.294;2022-08-25T08:12:51;7.88;;;3.40;;
69989;SDS011;57331;52.054;5.294;2022-08-25T08:15:18;13.43;;;3.55;;
69989;SDS011;57331;52.054;5.294;2022-08-25T08:17:47;9.43;;;3.90;;
69989;SDS011;57331;52.054;5.294;2022-08-25T08:20:15;7.70;;;3.23;;
69989;SDS011;57331;52.054;5.294;2022-08-25T08:22:48;8.98;;;3.65;;
69989;SDS011;57331;52.054;5.294;2022-08-25T08:25:15;9.18;;;3.88;;
69989;SDS011;57331;52.054;5.294;2022-08-25T08:27:51;11.93;;;3.58;;
69989;SDS011;57331;52.054;5.294;2022-08-25T08:30:20;8.13;;;3.85;;
69989;SDS011;57331;52.054;5.294;2022-08-25T08:32:51;11.57;;;5.47;;
69989;SDS011;57331;52.054;5.294;2022-08-25T08:35:35;15.05;;;6.82;;
69989;SDS011;57331;52.054;5.294;2022-08-25T08:38:02;11.55;;;3.97;;
69989;SDS011;57331;52.054;5.294;2022-08-25T08:40:43;9.68;;;3.65;;
69989;SDS011;57331;52.054;5.294;2022-08-25T08:43:39;7.75;;;3.30;;
69989;SDS011;57331;52.054;5.294;2022-08-25T08:46:08;7.00;;;3.47;;
69989;SDS011;57331;52.054;5.294;2022-08-25T08:48:43;12.93;;;3.90;;
69989;SDS011;57331;52.054;5.294;2022-08-25T08:51:29;9.55;;;3.50;;
69989;SDS011;57331;52.054;5.294;2022-08-25T08:54:15;8.63;;;3.50;;
69989;SDS011;57331;52.054;5.294;2022-08-25T08:56:49;9.50;;;3.20;;
69989;SDS011;57331;52.054;5.294;2022-08-25T08:59:23;6.73;;;3.30;;
69989;SDS011;57331;52.054;5.294;2022-08-25T09:01:59;11.50;;;3.90;;
69989;SDS011;57331;52.054;5.294;2022-08-25T09:04:34;7.38;;;3.15;;
69989;SDS011;57331;52.054;5.294;2022-08-25T09:07:11;8.43;;;3.22;;
69989;SDS011;57331;52.054;5.294;2022-08-25T09:09:41;9.48;;;3.22;;
69989;SDS011;57331;52.054;5.294;2022-08-25T09:15:27;10.60;;;3.50;;
69989;SDS011;57331;52.054;5.294;2022-08-25T09:23:41;7.40;;;3.40;;
69989;SDS011;57331;52.054;5.294;2022-08-25T09:31:47;13.35;;;3.42;;
69989;SDS011;57331;52.054;5.294;2022-08-25T09:34:19;8.23;;;2.67;;
69989;SDS011;57331;52.054;5.294;2022-08-25T09:36:48;10.15;;;2.72;;
69989;SDS011;57331;52.054;5.294;2022-08-25T09:39:19;9.90;;;2.90;;
69989;SDS011;57331;52.054;5.294;2022-08-25T09:41:47;8.23;;;2.95;;
69989;SDS011;57331;52.054;5.294;2022-08-25T09:44:22;6.45;;;3.13;;
69989;SDS011;57331;52.054;5.294;2022-08-25T09:47:23;9.32;;;3.03;;
69989;SDS011;57331;52.054;5.294;2022-08-25T09:50:00;7.75;;;2.92;;
69989;SDS011;57331;52.054;5.294;2022-08-25T09:52:32;7.47;;;2.83;;
69989;SDS011;57331;52.054;5.294;2022-08-25T10:00:21;6.10;;;2.97;;
69989;SDS011;57331;52.054;5.294;2022-08-25T10:05:31;9.40;;;3.00;;
69989;SDS011;57331;52.054;5.294;2022-08-25T10:08:10;7.78;;;3.08;;
69989;SDS011;57331;52.054;5.294;2022-08-25T10:10:43;7.97;;;2.90;;
69989;SDS011;57331;52.054;5.294;2022-08-25T10:13:13;10.35;;;3.10;;
69989;SDS011;57331;52.054;5.294;2022-08-25T10:16:02;8.52;;;3.47;;
69989;SDS011;57331;52.054;5.294;2022-08-25T10:21:40;7.43;;;2.80;;
69989;SDS011;57331;52.054;5.294;2022-08-25T10:24:10;8.65;;;3.03;;
69989;SDS011;57331;52.054;5.294;2022-08-25T10:34:57;7.03;;;3.08;;
69989;SDS011;57331;52.054;5.294;2022-08-25T10:40:38;10.20;;;2.83;;
69989;SDS011;57331;52.054;5.294;2022-08-25T10:43:34;7.75;;;2.70;;
69989;SDS011;57331;52.054;5.294;2022-08-25T10:51:51;7.70;;;2.80;;
69989;SDS011;57331;52.054;5.294;2022-08-25T10:59:50;8.30;;;3.20;;
69989;SDS011;57331;52.054;5.294;2022-08-25T11:02:48;10.55;;;3.08;;
69989;SDS011;57331;52.054;5.294;2022-08-25T11:08:11;6.20;;;2.70;;
69989;SDS011;57331;52.054;5.294;2022-08-25T11:14:13;6.07;;;2.43;;
69989;SDS011;57331;52.054;5.294;2022-08-25T11:17:19;8.50;;;3.10;;
69989;SDS011;57331;52.054;5.294;2022-08-25T11:20:19;9.20;;;4.50;;
69989;SDS011;57331;52.054;5.294;2022-08-25T11:25:41;7.30;;;2.88;;
69989;SDS011;57331;52.054;5.294;2022-08-25T11:31:03;11.25;;;3.20;;
69989;SDS011;57331;52.054;5.294;2022-08-25T11:33:32;9.27;;;3.20;;
69989;SDS011;57331;52.054;5.294;2022-08-25T11:36:02;6.80;;;2.97;;
69989;SDS011;57331;52.054;5.294;2022-08-25T11:38:41;7.53;;;3.05;;
69989;SDS011;57331;52.054;5.294;2022-08-25T11:41:30;6.27;;;3.27;;
69989;SDS011;57331;52.054;5.294;2022-08-25T11:55:10;7.43;;;2.90;;
69989;SDS011;57331;52.054;5.294;2022-08-25T11:57:52;8.13;;;3.03;;
69989;SDS011;57331;52.054;5.294;2022-08-25T12:00:42;7.43;;;2.60;;
69989;SDS011;57331;52.054;5.294;2022-08-25T12:30:18;5.50;;;2.80;;
69989;SDS011;57331;52.054;5.294;2022-08-25T12:33:01;8.10;;;2.60;;
69989;SDS011;57331;52.054;5.294;2022-08-25T12:35:48;6.60;;;2.63;;
69989;SDS011;57331;52.054;5.294;2022-08-25T12:38:44;6.85;;;2.70;;
69989;SDS011;57331;52.054;5.294;2022-08-25T12:41:21;8.57;;;2.70;;
69989;SDS011;57331;52.054;5.294;2022-08-25T12:44:08;6.93;;;2.65;;
69989;SDS011;57331;52.054;5.294;2022-08-25T12:49:49;6.40;;;3.00;;
69989;SDS011;57331;52.054;5.294;2022-08-25T12:52:20;5.30;;;2.80;;
69989;SDS011;57331;52.054;5.294;2022-08-25T12:54:57;9.00;;;3.08;;
69989;SDS011;57331;52.054;5.294;2022-08-25T13:12:03;6.30;;;2.80;;
69989;SDS011;57331;52.054;5.294;2022-08-25T13:14:41;5.75;;;2.70;;
69989;SDS011;57331;52.054;5.294;2022-08-25T13:17:09;7.30;;;2.80;;
69989;SDS011;57331;52.054;5.294;2022-08-25T13:19:37;7.22;;;3.05;;
69989;SDS011;57331;52.054;5.294;2022-08-25T13:22:12;5.72;;;2.60;;
69989;SDS011;57331;52.054;5.294;2022-08-25T13:24:42;10.57;;;2.80;;
69989;SDS011;57331;52.054;5.294;2022-08-25T13:27:20;10.85;;;2.70;;
69989;SDS011;57331;52.054;5.294;2022-08-25T13:29:52;13.30;;;2.70;;
69989;SDS011;57331;52.054;5.294;2022-08-25T13:32:28;4.97;;;2.70;;
69989;SDS011;57331;52.054;5.294;2022-08-25T13:38:14;10.00;;;3.00;;
69989;SDS011;57331;52.054;5.294;2022-08-25T13:40:42;8.35;;;2.80;;
69989;SDS011;57331;52.054;5.294;2022-08-25T13:43:11;8.23;;;2.83;;
69989;SDS011;57331;52.054;5.294;2022-08-25T13:45:41;12.95;;;3.30;;
69989;SDS011;57331;52.054;5.294;2022-08-25T13:48:11;11.15;;;3.05;;
69989;SDS011;57331;52.054;5.294;2022-08-25T13:50:48;7.07;;;2.88;;
69989;SDS011;57331;52.054;5.294;2022-08-25T13:53:21;6.63;;;2.78;;
69989;SDS011;57331;52.054;5.294;2022-08-25T13:55:52;5.90;;;2.50;;
69989;SDS011;57331;52.054;5.294;2022-08-25T13:58:33;7.53;;;3.00;;
69989;SDS011;57331;52.054;5.294;2022-08-25T14:01:12;8.00;;;2.90;;
69989;SDS011;57331;52.054;5.294;2022-08-25T14:06:46;11.75;;;3.00;;
69989;SDS011;57331;52.054;5.294;2022-08-25T14:09:15;10.43;;;3.07;;
69989;SDS011;57331;52.054;5.294;2022-08-25T14:11:56;8.23;;;2.75;;
69989;SDS011;57331;52.054;5.294;2022-08-25T14:16:57;9.23;;;2.85;;
69989;SDS011;57331;52.054;5.294;2022-08-25T14:19:55;8.32;;;2.83;;
69989;SDS011;57331;52.054;5.294;2022-08-25T14:22:22;6.73;;;2.80;;
69989;SDS011;57331;52.054;5.294;2022-08-25T14:24:50;6.20;;;2.78;;
69989;SDS011;57331;52.054;5.294;2022-08-25T14:27:18;7.80;;;2.70;;
69989;SDS011;57331;52.054;5.294;2022-08-25T14:29:45;5.80;;;2.92;;
69989;SDS011;57331;52.054;5.294;2022-08-25T14:32:17;10.10;;;3.08;;
69989;SDS011;57331;52.054;5.294;2022-08-25T14:34:45;8.30;;;2.70;;
69989;SDS011;57331;52.054;5.294;2022-08-25T14:37:13;6.65;;;2.58;;
69989;SDS011;57331;52.054;5.294;2022-08-25T14:39:44;9.70;;;2.90;;
69989;SDS011;57331;52.054;5.294;2022-08-25T14:42:12;9.68;;;2.90;;
69989;SDS011;57331;52.054;5.294;2022-08-25T14:44:42;7.05;;;2.50;;
69989;SDS011;57331;52.054;5.294;2022-08-25T14:47:09;6.70;;;3.00;;
69989;SDS011;57331;52.054;5.294;2022-08-25T14:49:37;6.57;;;2.60;;
69989;SDS011;57331;52.054;5.294;2022-08-25T14:52:12;7.03;;;2.90;;
69989;SDS011;57331;52.054;5.294;2022-08-25T14:54:47;8.30;;;2.83;;
69989;SDS011;57331;52.054;5.294;2022-08-25T14:57:14;6.70;;;2.70;;
69989;SDS011;57331;52.054;5.294;2022-08-25T14:59:41;7.47;;;2.53;;
69989;SDS011;57331;52.054;5.294;2022-08-25T15:02:08;7.25;;;2.85;;
69989;SDS011;57331;52.054;5.294;2022-08-25T15:04:39;5.18;;;2.42;;
69989;SDS011;57331;52.054;5.294;2022-08-25T15:07:14;8.68;;;2.95;;
69989;SDS011;57331;52.054;5.294;2022-08-25T15:10:00;8.27;;;2.50;;
69989;SDS011;57331;52.054;5.294;2022-08-25T15:12:28;6.83;;;2.73;;
69989;SDS011;57331;52.054;5.294;2022-08-25T15:15:13;11.52;;;2.92;;
69989;SDS011;57331;52.054;5.294;2022-08-25T15:17:40;11.07;;;2.67;;
69989;SDS011;57331;52.054;5.294;2022-08-25T15:20:09;4.95;;;2.60;;
69989;SDS011;57331;52.054;5.294;2022-08-25T15:22:36;6.20;;;2.83;;
69989;SDS011;57331;52.054;5.294;2022-08-25T15:25:06;5.00;;;2.70;;
69989;SDS011;57331;52.054;5.294;2022-08-25T15:27:34;9.20;;;2.72;;
69989;SDS011;57331;52.054;5.294;2022-08-25T15:30:02;8.82;;;3.45;;
69989;SDS011;57331;52.054;5.294;2022-08-25T15:32:29;5.90;;;3.00;;
69989;SDS011;57331;52.054;5.294;2022-08-25T15:34:56;6.45;;;3.00;;
69989;SDS011;57331;52.054;5.294;2022-08-25T15:37:24;8.17;;;3.30;;
69989;SDS011;57331;52.054;5.294;2022-08-25T15:39:51;8.00;;;3.10;;
69989;SDS011;57331;52.054;5.294;2022-08-25T15:42:18;6.47;;;2.70;;
69989;SDS011;57331;52.054;5.294;2022-08-25T15:44:46;6.32;;;3.00;;
69989;SDS011;57331;52.054;5.294;2022-08-25T15:47:18;6.32;;;3.03;;
69989;SDS011;57331;52.054;5.294;2022-08-25T15:49:46;10.60;;;2.97;;
69989;SDS011;57331;52.054;5.294;2022-08-25T15:52:13;7.88;;;2.92;;
69989;SDS011;57331;52.054;5.294;2022-08-25T15:54:39;7.00;;;3.20;;
69989;SDS011;57331;52.054;5.294;2022-08-25T15:57:07;7.88;;;3.00;;
69989;SDS011;57331;52.054;5.294;2022-08-25T15:59:35;7.65;;;2.90;;
69989;SDS011;57331;52.054;5.294;2022-08-25T16:02:06;7.40;;;2.70;;
69989;SDS011;57331;52.054;5.294;2022-08-25T16:04:40;9.60;;;3.20;;
69989;SDS011;57331;52.054;5.294;2022-08-25T16:07:08;8.57;;;2.80;;
69989;SDS011;57331;52.054;5.294;2022-08-25T16:09:39;7.15;;;3.10;;
69989;SDS011;57331;52.054;5.294;2022-08-25T16:12:06;7.43;;;2.90;;
69989;SDS011;57331;52.054;5.294;2022-08-25T16:14:34;6.80;;;2.90;;
69989;SDS011;57331;52.054;5.294;2022-08-25T16:17:03;8.00;;;2.67;;
69989;SDS011;57331;52.054;5.294;2022-08-25T16:19:30;8.43;;;2.92;;
69989;SDS011;57331;52.054;5.294;2022-08-25T16:22:01;8.45;;;2.90;;
69989;SDS011;57331;52.054;5.294;2022-08-25T16:24:32;9.20;;;2.72;;
69989;SDS011;57331;52.054;5.294;2022-08-25T16:27:03;6.97;;;2.90;;
69989;SDS011;57331;52.054;5.294;2022-08-25T16:29:37;7.85;;;3.05;;
69989;SDS011;57331;52.054;5.294;2022-08-25T16:32:06;7.15;;;3.00;;
69989;SDS011;57331;52.054;5.294;2022-08-25T16:34:34;7.78;;;3.10;;
69989;SDS011;57331;52.054;5.294;2022-08-25T16:37:01;8.73;;;2.80;;
69989;SDS011;57331;52.054;5.294;2022-08-25T16:39:29;7.87;;;2.77;;
69989;SDS011;57331;52.054;5.294;2022-08-25T16:41:56;6.95;;;2.90;;
69989;SDS011;57331;52.054;5.294;2022-08-25T16:44:23;11.57;;;5.32;;
69989;SDS011;57331;52.054;5.294;2022-08-25T16:46:51;7.05;;;3.10;;
69989;SDS011;57331;52.054;5.294;2022-08-25T16:49:20;7.18;;;3.40;;
69989;SDS011;57331;52.054;5.294;2022-08-25T16:51:49;6.97;;;2.97;;
69989;SDS011;57331;52.054;5.294;2022-08-25T16:54:22;8.77;;;3.20;;
69989;SDS011;57331;52.054;5.294;2022-08-25T16:57:08;6.57;;;3.08;;
69989;SDS011;57331;52.054;5.294;2022-08-25T16:59:35;9.32;;;3.40;;
69989;SDS011;57331;52.054;5.294;2022-08-25T17:02:02;9.88;;;3.35;;
69989;SDS011;57331;52.054;5.294;2022-08-25T17:04:30;6.30;;;3.40;;
69989;SDS011;57331;52.054;5.294;2022-08-25T17:06:58;9.00;;;3.75;;
69989;SDS011;57331;52.054;5.294;2022-08-25T17:09:25;7.60;;;3.83;;
69989;SDS011;57331;52.054;5.294;2022-08-25T17:11:52;9.93;;;4.10;;
69989;SDS011;57331;52.054;5.294;2022-08-25T17:14:22;7.18;;;4.32;;
69989;SDS011;57331;52.054;5.294;2022-08-25T17:16:49;7.57;;;3.63;;
69989;SDS011;57331;52.054;5.294;2022-08-25T17:19:19;8.68;;;4.07;;
69989;SDS011;57331;52.054;5.294;2022-08-25T17:21:49;10.15;;;4.45;;